createdAt,value
2023-03-05T00:03:05.862Z,101022.19
2023-03-05T00:13:08.067Z,101016.97
2023-03-05T00:23:10.208Z,101010.38
2023-03-05T00:33:13.230Z,101007.69
2023-03-05T00:43:15.361Z,100998.34
2023-03-05T00:53:17.821Z,101000.53
2023-03-05T01:03:20.098Z,100993.78
2023-03-05T01:13:24.174Z,100975.88
2023-03-05T01:23:26.666Z,100971.38
2023-03-05T01:33:28.746Z,100956.03
2023-03-05T01:43:31.141Z,100947.56
2023-03-05T01:53:33.432Z,100950.03
2023-03-05T02:03:36.728Z,100940.19
2023-03-05T02:13:40.685Z,100932.31
2023-03-05T02:23:42.753Z,100905.03
2023-03-05T02:33:45.635Z,100896.63
2023-03-05T02:43:48.530Z,100886.75
2023-03-05T02:53:50.886Z,100880.78
2023-03-05T03:03:54.338Z,100877.16
2023-03-05T03:13:56.503Z,100848.41
2023-03-05T03:23:58.549Z,100844.31
2023-03-05T03:34:00.703Z,100828.56
2023-03-05T03:44:04.759Z,100817.69
2023-03-05T03:54:06.809Z,100805.53
2023-03-05T04:04:11.119Z,100797.72
2023-03-05T04:14:13.228Z,100791.22
2023-03-05T04:24:15.334Z,100772.38
2023-03-05T04:34:17.380Z,100754.00
2023-03-05T04:44:19.606Z,100749.81
2023-03-05T04:54:22.316Z,100755.09
2023-03-05T05:04:24.353Z,100751.56
2023-03-05T05:14:26.420Z,100747.50
2023-03-05T05:24:28.485Z,100739.81
2023-03-05T05:34:30.537Z,100729.09
2023-03-05T05:44:34.833Z,100726.03
2023-03-05T05:54:37.034Z,100736.06
2023-03-05T06:04:40.200Z,100718.00
2023-03-05T06:14:42.343Z,100714.69
2023-03-05T06:24:44.399Z,100718.41
2023-03-05T06:34:46.571Z,100723.47
2023-03-05T06:44:48.753Z,100723.69
2023-03-05T06:54:51.171Z,100718.69
2023-03-05T07:04:53.208Z,100714.56
2023-03-05T07:14:55.524Z,100714.03
2023-03-05T07:24:57.605Z,100701.16
2023-03-05T07:34:59.761Z,100689.66
2023-03-05T07:45:01.976Z,100683.50
2023-03-05T07:55:04.275Z,100671.25
2023-03-05T08:05:06.745Z,100655.09
2023-03-05T08:15:09.226Z,100676.13
2023-03-05T08:25:11.901Z,100649.78
2023-03-05T08:35:14.046Z,100640.59
2023-03-05T08:45:16.299Z,100633.66
2023-03-05T08:55:18.389Z,100633.09
2023-03-05T09:05:20.555Z,100622.50
2023-03-05T09:15:23.221Z,100617.72
2023-03-05T09:25:25.408Z,100614.41
2023-03-05T09:35:27.964Z,100606.00
2023-03-05T09:45:58.492Z,100599.66
2023-03-05T09:56:04.643Z,100594.00
2023-03-05T10:06:15.573Z,100603.84
2023-03-05T10:16:58.610Z,100576.44
2023-03-05T10:27:34.217Z,100569.28
2023-03-05T10:37:56.926Z,100560.78
2023-03-05T10:48:07.765Z,100550.47
2023-03-05T10:58:14.504Z,100536.47
2023-03-05T11:08:19.570Z,100524.28
2023-03-05T11:18:24.021Z,100513.28
2023-03-05T11:28:33.364Z,100502.19
2023-03-05T11:38:46.538Z,100505.31
2023-03-05T11:48:49.180Z,100481.50
2023-03-05T11:59:02.024Z,100470.97
2023-03-05T12:09:30.421Z,100456.28
2023-03-05T12:19:48.621Z,100439.38
2023-03-05T12:29:54.379Z,100441.75
2023-03-05T12:40:00.959Z,100420.66
2023-03-05T12:50:04.617Z,100399.47
2023-03-05T13:00:21.397Z,100380.44
2023-03-05T13:10:28.973Z,100373.19
2023-03-05T13:20:39.665Z,100340.91
2023-03-05T13:30:51.696Z,100322.31
2023-03-05T13:41:05.225Z,100310.59
2023-03-05T13:51:09.499Z,100304.81
2023-03-05T14:01:32.847Z,100288.78
2023-03-05T14:11:35.750Z,100267.13
2023-03-05T14:21:49.408Z,100257.75
2023-03-05T14:31:59.588Z,100242.28
2023-03-05T14:42:24.420Z,100222.28
2023-03-05T14:52:28.180Z,100204.03
2023-03-05T15:02:30.498Z,100192.47
2023-03-05T15:12:32.756Z,100171.97
2023-03-05T15:22:35.059Z,100168.97
2023-03-05T15:32:37.341Z,100152.28
2023-03-05T15:42:40.102Z,100155.31
2023-03-05T15:52:42.743Z,100137.44
2023-03-05T16:02:46.268Z,100127.53
2023-03-05T16:12:51.465Z,100125.13
2023-03-05T16:22:53.721Z,100107.06
2023-03-05T16:32:56.174Z,100101.28
2023-03-05T16:42:58.481Z,100097.88
2023-03-05T16:53:00.735Z,100080.97
2023-03-05T17:03:04.019Z,100092.81
2023-03-05T17:13:06.218Z,100099.94
2023-03-05T17:23:08.642Z,100091.16
2023-03-05T17:33:11.898Z,100093.41
2023-03-05T17:43:14.295Z,100088.47
2023-03-05T17:53:16.626Z,100086.53
2023-03-05T18:03:18.748Z,100081.56
2023-03-05T18:13:20.913Z,100069.22
2023-03-05T18:23:23.089Z,100061.41
2023-03-05T18:33:25.429Z,100055.66
2023-03-05T18:43:27.910Z,100053.34
2023-03-05T18:53:30.407Z,100038.31
2023-03-05T19:03:33.146Z,100032.22
2023-03-05T19:13:48.672Z,100027.13
2023-03-05T19:23:50.797Z,100023.94
2023-03-05T19:33:54.273Z,100030.06
2023-03-05T19:43:56.462Z,100029.75
2023-03-05T19:53:58.752Z,100014.78
2023-03-05T20:04:02.843Z,100006.56
2023-03-05T20:14:05.012Z,99997.25
2023-03-05T20:24:10.715Z,99990.88
2023-03-05T20:34:15.400Z,99978.53
2023-03-05T20:44:17.496Z,99969.09
2023-03-05T20:54:20.015Z,99955.47
2023-03-05T21:04:22.153Z,99949.50
2023-03-05T21:14:24.422Z,99936.28
2023-03-05T21:24:32.727Z,99921.63
2023-03-05T21:34:34.933Z,99916.06
2023-03-05T21:44:37.364Z,99899.22
2023-03-05T21:54:40.075Z,99887.78
2023-03-05T22:04:42.435Z,99881.03
2023-03-05T22:14:44.598Z,99846.81
2023-03-05T22:24:46.745Z,99837.47
2023-03-05T22:34:48.855Z,99823.91
2023-03-05T22:44:56.322Z,99806.22
2023-03-05T22:54:58.482Z,99805.00
2023-03-05T23:05:00.607Z,99790.72
2023-03-05T23:15:06.312Z,99777.06
2023-03-05T23:25:08.718Z,99778.53
2023-03-05T23:35:12.338Z,99766.94
2023-03-05T23:45:16.900Z,99761.00
2023-03-05T23:55:31.457Z,99749.25
